Time;durP1;ratioP1;P1;durP2;ratioP2;P2;SDS_P1;SDS_P2;PMS_P1;PMS_P2;Temp;Humidity;BMP_temperature;BMP_pressure;BME280_temperature;BME280_humidity;BME280_pressure;Samples;Min_cycle;Max_cycle;Signal;HPM_P1;HPM_P2
2021/09/12 00:02:23;;;;;;;13.55;4.50;;;;;;;17.23;45.19;100354.56;5054830;28;20025;-67
2021/09/12 00:04:48;;;;;;;7.18;4.30;;;;;;;17.24;45.31;100330.22;5054714;28;20474;-68
2021/09/12 00:07:14;;;;;;;9.13;4.65;;;;;;;17.44;45.64;100366.03;5054745;28;20033;-67
2021/09/12 00:09:40;;;;;;;11.93;5.22;;;;;;;17.50;45.43;100360.88;5054574;28;20086;-67
2021/09/12 00:12:07;;;;;;;9.25;4.60;;;;;;;17.03;44.66;100374.41;5054911;28;20048;-66
2021/09/12 00:14:32;;;;;;;11.80;5.20;;;;;;;16.45;46.01;100376.41;5055131;28;20035;-70
2021/09/12 00:16:58;;;;;;;9.30;5.28;;;;;;;16.48;46.42;100371.22;5054499;28;20024;-66
2021/09/12 00:19:24;;;;;;;10.07;5.07;;;;;;;16.59;46.92;100368.75;5054340;28;20044;-67
2021/09/12 00:21:52;;;;;;;12.52;4.80;;;;;;;16.54;47.32;100370.44;5054267;28;20032;-67
2021/09/12 00:24:17;;;;;;;10.48;4.47;;;;;;;16.37;47.56;100340.72;5054142;28;20035;-67
2021/09/12 00:26:43;;;;;;;12.00;4.60;;;;;;;16.61;48.05;100376.56;5054104;28;20021;-67
2021/09/12 00:29:09;;;;;;;8.18;5.00;;;;;;;16.51;48.17;100365.19;5054333;28;20090;-67
2021/09/12 00:31:34;;;;;;;10.90;4.95;;;;;;;16.64;48.80;100381.81;5054162;28;20029;-67
2021/09/12 00:34:00;;;;;;;7.30;4.90;;;;;;;16.62;48.78;100388.75;5054422;28;20061;-66
2021/09/12 00:36:25;;;;;;;12.98;5.90;;;;;;;16.61;48.56;100377.47;5054136;28;20059;-67
2021/09/12 00:38:51;;;;;;;11.35;4.68;;;;;;;16.48;47.90;100375.56;5054248;28;20040;-67
2021/09/12 00:41:18;;;;;;;11.20;5.13;;;;;;;16.01;48.89;100384.53;5054104;28;20033;-67
2021/09/12 00:43:43;;;;;;;13.77;5.00;;;;;;;15.60;50.72;100383.09;5054419;28;20400;-67
2021/09/12 00:46:08;;;;;;;9.10;4.78;;;;;;;15.46;51.73;100387.19;5054207;28;20025;-67
2021/09/12 00:48:35;;;;;;;9.05;4.38;;;;;;;15.38;51.76;100384.47;5053936;28;20033;-67
2021/09/12 00:51:01;;;;;;;8.30;4.40;;;;;;;15.22;51.72;100339.16;5052802;28;20037;-67
2021/09/12 00:53:31;;;;;;;6.30;4.07;;;;;;;15.63;51.62;100382.25;5052293;28;20061;-67
2021/09/12 00:56:00;;;;;;;10.32;5.07;;;;;;;15.71;52.26;100377.16;5053434;28;20495;-67
2021/09/12 00:58:27;;;;;;;9.57;4.30;;;;;;;15.52;51.50;100337.84;5053779;28;20033;-67
2021/09/12 01:00:53;;;;;;;9.75;4.40;;;;;;;15.69;50.73;100375.41;5053208;28;20116;-67
2021/09/12 01:03:19;;;;;;;9.45;4.68;;;;;;;15.80;50.51;100374.69;5053449;28;20482;-67
2021/09/12 01:05:44;;;;;;;9.77;5.55;;;;;;;15.78;50.35;100386.81;5053888;28;20032;-68
2021/09/12 01:08:11;;;;;;;9.10;4.57;;;;;;;15.16;51.58;100385.84;5053534;28;20056;-67
2021/09/12 01:10:37;;;;;;;7.15;4.18;;;;;;;15.04;52.49;100390.00;5053678;28;20178;-67
2021/09/12 01:13:04;;;;;;;8.77;4.07;;;;;;;15.20;52.69;100387.66;5053495;28;20033;-67
2021/09/12 01:15:30;;;;;;;8.02;4.57;;;;;;;15.39;52.65;100380.13;5053376;28;20036;-67
2021/09/12 01:17:55;;;;;;;10.95;4.65;;;;;;;15.59;51.94;100380.44;5053210;28;20029;-67
2021/09/12 01:20:21;;;;;;;8.93;4.50;;;;;;;15.76;51.49;100378.09;5053081;28;20029;-70
2021/09/12 01:22:46;;;;;;;10.20;4.18;;;;;;;15.61;51.84;100342.31;5053072;28;20032;-66
2021/09/12 01:25:12;;;;;;;9.77;4.78;;;;;;;15.92;51.54;100382.69;5053294;28;20044;-67
2021/09/12 01:27:37;;;;;;;11.93;4.60;;;;;;;15.82;51.00;100367.81;5053244;28;20598;-67
2021/09/12 01:30:04;;;;;;;8.00;4.72;;;;;;;15.66;49.31;100364.97;5053066;28;20487;-67
2021/09/12 01:32:29;;;;;;;7.30;4.40;;;;;;;15.55;48.45;100363.03;5052921;28;20029;-67
2021/09/12 01:34:55;;;;;;;6.70;3.78;;;;;;;15.38;48.75;100350.66;5053190;28;20458;-67
2021/09/12 01:37:20;;;;;;;7.40;4.43;;;;;;;15.33;49.73;100363.59;5052961;28;20445;-67
2021/09/12 01:39:46;;;;;;;7.75;4.32;;;;;;;15.14;50.79;100371.94;5052856;28;20041;-67
2021/09/12 01:42:11;;;;;;;8.95;4.35;;;;;;;14.89;51.60;100368.91;5069099;28;20017;-67
2021/09/12 01:44:37;;;;;;;5.80;4.13;;;;;;;14.67;52.37;100383.25;5053551;28;20025;-67
2021/09/12 01:47:02;;;;;;;14.07;4.43;;;;;;;14.21;52.75;100333.88;5052880;28;20082;-67
2021/09/12 01:49:28;;;;;;;12.70;4.53;;;;;;;14.56;52.56;100370.88;5053075;28;20029;-67
2021/09/12 01:51:54;;;;;;;10.00;4.40;;;;;;;14.68;52.60;100379.81;5052764;28;20044;-67
2021/09/12 01:54:20;;;;;;;10.88;4.40;;;;;;;14.87;51.68;100370.63;5052750;28;20103;-67
2021/09/12 01:56:45;;;;;;;11.60;4.30;;;;;;;14.62;50.88;100336.38;5050603;28;20037;-67
2021/09/12 01:59:11;;;;;;;7.97;4.72;;;;;;;14.84;51.79;100366.25;5052302;28;20395;-67
2021/09/12 02:01:36;;;;;;;10.57;4.75;;;;;;;14.63;52.91;100345.03;5052533;28;20068;-67
2021/09/12 02:04:02;;;;;;;9.15;4.25;;;;;;;14.69;53.62;100365.97;5052236;28;20414;-67
2021/09/12 02:06:27;;;;;;;10.52;4.90;;;;;;;14.82;53.58;100382.69;5052496;28;20117;-67
2021/09/12 02:08:53;;;;;;;7.13;4.30;;;;;;;14.76;53.52;100375.63;5052152;28;20140;-67
2021/09/12 02:11:20;;;;;;;11.13;5.10;;;;;;;14.84;53.17;100374.06;5052160;28;20040;-67
2021/09/12 02:13:45;;;;;;;8.07;4.43;;;;;;;14.51;53.79;100359.53;5052191;28;20446;-67
2021/09/12 02:16:11;;;;;;;8.05;4.93;;;;;;;14.42;55.02;100384.47;5052145;28;20024;-67
2021/09/12 02:18:36;;;;;;;12.25;5.65;;;;;;;13.97;55.86;100331.63;5052274;28;20486;-67
2021/09/12 02:21:03;;;;;;;10.32;5.35;;;;;;;14.01;56.65;100377.59;5051975;28;20514;-67
2021/09/12 02:23:28;;;;;;;6.93;4.60;;;;;;;14.10;56.60;100377.78;5052223;28;20451;-67
2021/09/12 02:25:54;;;;;;;10.52;4.70;;;;;;;13.92;57.40;100367.88;5052675;28;20024;-67
2021/09/12 02:28:19;;;;;;;7.80;4.47;;;;;;;13.93;57.37;100379.13;5052154;28;20029;-66
2021/09/12 02:30:46;;;;;;;6.53;4.65;;;;;;;14.03;57.24;100381.06;5052063;28;20072;-67
2021/09/12 02:33:11;;;;;;;9.88;5.28;;;;;;;14.10;57.09;100380.38;5051872;28;20032;-67
2021/09/12 02:35:37;;;;;;;7.80;4.60;;;;;;;14.21;56.54;100380.59;5051789;28;20036;-67
2021/09/12 02:38:03;;;;;;;10.63;4.93;;;;;;;14.31;56.35;100379.94;5051629;28;20036;-67
2021/09/12 02:40:29;;;;;;;10.32;4.68;;;;;;;14.44;55.84;100387.97;5052144;28;20028;-67
2021/09/12 02:42:54;;;;;;;8.63;4.47;;;;;;;14.05;56.32;100382.84;5033233;28;20029;-67
2021/09/12 02:45:20;;;;;;;9.32;5.00;;;;;;;13.87;56.82;100390.28;5052016;28;20017;-67
2021/09/12 02:47:45;;;;;;;9.70;4.13;;;;;;;14.05;56.06;100380.25;5051992;28;20515;-67
2021/09/12 02:50:10;;;;;;;8.75;4.65;;;;;;;14.04;55.80;100375.94;5051627;28;20067;-67
2021/09/12 02:52:36;;;;;;;9.60;4.68;;;;;;;14.12;55.33;100351.84;5051848;28;20049;-67
2021/09/12 02:55:06;;;;;;;10.13;4.88;;;;;;;14.26;55.60;100378.97;5051758;28;20487;-67
2021/09/12 02:57:31;;;;;;;;;;;;;;;14.07;56.19;100385.50;5052249;28;20098;-67
2021/09/12 02:59:58;;;;;;;9.05;3.95;;;;;;;14.16;55.68;100382.22;5051489;28;20379;-67
2021/09/12 03:02:24;;;;;;;10.18;4.18;;;;;;;14.14;55.44;100386.50;5051433;28;20021;-67
2021/09/12 03:04:49;;;;;;;8.70;4.97;;;;;;;14.02;56.42;100380.22;5051425;28;20088;-67
2021/09/12 03:07:15;;;;;;;12.75;4.60;;;;;;;13.94;56.96;100383.47;5051546;28;20081;-67
2021/09/12 03:09:40;;;;;;;9.40;4.90;;;;;;;14.00;56.88;100391.41;5051843;28;20097;-67
2021/09/12 03:12:06;;;;;;;7.20;4.47;;;;;;;13.87;56.92;100377.28;5051846;28;20032;-68
2021/09/12 03:14:31;;;;;;;8.95;4.80;;;;;;;13.77;56.73;100349.38;5051365;28;20036;-66
2021/09/12 03:16:57;;;;;;;9.95;4.70;;;;;;;14.01;56.62;100391.44;5050292;28;20056;-65
2021/09/12 03:19:22;;;;;;;7.28;4.50;;;;;;;14.07;56.54;100382.91;5051392;28;20459;-67
2021/09/12 03:21:48;;;;;;;10.40;4.68;;;;;;;13.93;56.50;100340.19;5051236;28;20025;-67
2021/09/12 03:24:13;;;;;;;8.60;4.85;;;;;;;14.01;56.64;100362.88;5053271;28;20483;-66
2021/09/12 03:26:38;;;;;;;10.10;5.40;;;;;;;14.15;57.07;100378.75;5055295;28;20029;-67
2021/09/12 03:29:04;;;;;;;8.45;4.80;;;;;;;14.01;56.77;100373.25;5055167;28;20032;-66
2021/09/12 03:31:29;;;;;;;8.73;4.10;;;;;;;13.92;56.27;100323.78;5055164;28;20029;-67
2021/09/12 03:33:55;;;;;;;9.27;5.07;;;;;;;13.91;56.37;100327.19;5036341;28;20099;-67
2021/09/12 03:36:20;;;;;;;11.98;5.00;;;;;;;14.18;56.54;100364.94;5055200;28;20036;-67
2021/09/12 03:38:46;;;;;;;10.88;5.15;;;;;;;13.93;56.70;100325.50;5055440;28;20111;-67
2021/09/12 03:41:14;;;;;;;10.82;4.97;;;;;;;13.87;56.70;100323.66;5055635;28;20037;-67
2021/09/12 03:43:40;;;;;;;9.63;5.50;;;;;;;14.17;56.84;100355.44;5055369;28;20057;-67
2021/09/12 03:46:05;;;;;;;9.95;5.18;;;;;;;14.18;56.64;100373.63;5055284;28;20056;-67
2021/09/12 03:48:31;;;;;;;7.28;4.90;;;;;;;13.86;57.30;100367.75;5055029;28;20029;-67
2021/09/12 03:50:56;;;;;;;12.38;5.50;;;;;;;13.98;57.25;100388.78;5054981;28;20044;-66
2021/09/12 03:53:22;;;;;;;9.25;5.20;;;;;;;13.83;57.32;100346.91;5055467;28;20037;-67
2021/09/12 03:55:47;;;;;;;11.27;5.00;;;;;;;13.98;57.65;100378.41;5054825;28;20021;-67
2021/09/12 03:58:13;;;;;;;10.00;4.97;;;;;;;13.30;57.39;100273.09;5054941;28;20031;-67
2021/09/12 04:00:39;;;;;;;9.52;5.13;;;;;;;13.85;58.24;100382.44;5054696;28;20029;-71
2021/09/12 04:03:04;;;;;;;7.93;5.35;;;;;;;13.61;58.01;100333.47;5054643;28;20060;-67
2021/09/12 04:05:30;;;;;;;13.27;5.47;;;;;;;13.85;58.16;100378.97;5054816;28;20031;-67
2021/09/12 04:07:55;;;;;;;8.30;5.55;;;;;;;13.80;58.52;100385.78;5054861;28;20029;-67
2021/09/12 04:10:22;;;;;;;9.73;5.13;;;;;;;13.75;58.63;100380.47;5054783;28;20082;-67
2021/09/12 04:12:47;;;;;;;10.25;5.60;;;;;;;13.56;58.37;100338.56;5054703;28;20484;-65
2021/09/12 04:15:12;;;;;;;8.52;5.72;;;;;;;13.89;58.17;100392.06;5054531;28;20033;-67
2021/09/12 04:17:38;;;;;;;9.30;5.20;;;;;;;13.63;58.20;100343.88;5054359;28;20495;-67
2021/09/12 04:20:04;;;;;;;8.65;5.80;;;;;;;13.66;58.73;100390.66;5054110;28;20040;-67
2021/09/12 04:22:30;;;;;;;11.95;5.15;;;;;;;13.58;58.73;100382.69;5054552;28;20182;-67
2021/09/12 04:24:55;;;;;;;11.32;5.25;;;;;;;13.29;59.49;100371.59;5054524;28;20100;-67
2021/09/12 04:27:21;;;;;;;13.52;5.70;;;;;;;13.49;59.25;100375.56;5035576;28;20480;-67
2021/09/12 04:29:46;;;;;;;10.45;6.15;;;;;;;13.61;58.75;100381.88;5054160;28;20130;-67
2021/09/12 04:32:12;;;;;;;11.57;5.82;;;;;;;13.65;58.53;100373.34;5053934;28;20487;-67
2021/09/12 04:34:37;;;;;;;11.13;5.25;;;;;;;13.83;58.22;100384.13;5053435;28;20025;-67
2021/09/12 04:37:04;;;;;;;21.30;6.10;;;;;;;13.79;58.37;100384.88;5054282;28;20107;-67
2021/09/12 04:39:29;;;;;;;27.58;6.10;;;;;;;13.83;58.02;100383.25;5053007;28;20044;-67
2021/09/12 04:41:54;;;;;;;23.48;5.78;;;;;;;13.58;58.05;100342.06;5054352;28;20033;-67
2021/09/12 04:44:20;;;;;;;11.05;5.63;;;;;;;14.03;58.21;100383.66;5054194;28;20024;-67
2021/09/12 04:46:45;;;;;;;9.15;5.32;;;;;;;14.11;58.56;100386.47;5054035;28;20032;-67
2021/09/12 04:49:11;;;;;;;13.07;7.50;;;;;;;14.15;57.63;100385.66;5053874;28;20068;-67
2021/09/12 04:51:36;;;;;;;11.05;5.40;;;;;;;14.14;57.25;100381.31;5054026;28;20025;-66
2021/09/12 04:54:02;;;;;;;11.23;6.28;;;;;;;14.03;57.83;100384.56;5053779;28;20049;-67
2021/09/12 04:56:27;;;;;;;12.35;5.80;;;;;;;13.95;57.50;100352.38;5052482;28;20169;-67
2021/09/12 04:58:52;;;;;;;9.98;5.30;;;;;;;14.22;57.30;100387.56;5053562;28;20029;-67
2021/09/12 05:01:18;;;;;;;9.52;5.28;;;;;;;14.29;57.24;100392.00;5053745;28;20536;-67
2021/09/12 05:03:44;;;;;;;10.07;5.68;;;;;;;14.05;57.35;100356.91;5053362;28;20511;-67
2021/09/12 05:06:10;;;;;;;12.23;5.80;;;;;;;14.22;57.59;100390.16;5053682;28;20115;-67
2021/09/12 05:08:35;;;;;;;8.85;5.88;;;;;;;13.97;57.94;100370.56;5053753;28;20036;-67
2021/09/12 05:11:01;;;;;;;9.80;5.22;;;;;;;13.93;58.47;100382.59;5053318;28;20029;-67
2021/09/12 05:13:27;;;;;;;15.32;5.53;;;;;;;13.97;58.59;100384.44;5053540;28;20025;-65
2021/09/12 05:15:53;;;;;;;17.42;6.13;;;;;;;14.05;58.80;100384.59;5053175;28;20025;-66
2021/09/12 05:18:18;;;;;;;12.10;5.30;;;;;;;14.15;58.58;100386.53;5053110;28;20021;-67
2021/09/12 05:20:44;;;;;;;13.48;5.70;;;;;;;14.17;58.84;100396.97;5053050;28;20099;-67
2021/09/12 05:23:10;;;;;;;13.43;5.90;;;;;;;14.30;58.23;100390.28;5053426;28;20033;-67
2021/09/12 05:25:36;;;;;;;12.10;5.45;;;;;;;14.41;57.90;100386.19;5053270;28;20029;-67
2021/09/12 05:28:01;;;;;;;11.15;6.10;;;;;;;14.50;58.01;100393.28;5053258;28;20032;-66
2021/09/12 05:30:28;;;;;;;15.55;5.47;;;;;;;14.48;57.92;100374.19;5052947;28;20023;-67
2021/09/12 05:32:53;;;;;;;11.07;5.45;;;;;;;14.71;57.66;100377.28;5052868;28;20402;-67
2021/09/12 05:35:22;;;;;;;10.80;5.40;;;;;;;14.80;57.44;100392.16;5053204;28;20028;-66
2021/09/12 05:37:48;;;;;;;12.15;5.78;;;;;;;14.97;57.33;100392.47;5053292;28;20060;-67
2021/09/12 05:40:15;;;;;;;11.60;5.35;;;;;;;15.10;56.59;100383.16;5044182;28;20473;-67
2021/09/12 05:42:40;;;;;;;8.90;5.78;;;;;;;15.31;56.27;100387.84;5052815;28;20427;-67
2021/09/12 05:45:07;;;;;;;10.05;5.20;;;;;;;15.38;56.14;100389.69;5052977;28;20029;-67
2021/09/12 05:47:34;;;;;;;8.57;5.25;;;;;;;15.52;55.78;100395.97;5051769;28;20088;-67
2021/09/12 05:50:00;;;;;;;10.82;5.00;;;;;;;15.40;55.53;100355.88;5053163;28;20039;-68
2021/09/12 05:52:26;;;;;;;11.65;6.10;;;;;;;15.82;55.37;100391.22;5052481;28;20090;-67
2021/09/12 05:54:52;;;;;;;12.25;5.38;;;;;;;16.09;54.36;100389.88;5052872;28;20057;-67
2021/09/12 05:57:17;;;;;;;13.45;5.00;;;;;;;16.14;54.24;100396.00;5052586;28;20070;-67
2021/09/12 05:59:43;;;;;;;11.90;5.35;;;;;;;16.16;54.41;100391.69;5052250;28;20388;-67
2021/09/12 06:02:09;;;;;;;8.43;5.13;;;;;;;16.38;54.44;100390.22;5052252;28;20029;-67
2021/09/12 06:04:34;;;;;;;15.25;5.85;;;;;;;16.53;53.95;100384.31;5052544;28;20457;-67
2021/09/12 06:07:00;;;;;;;8.27;4.88;;;;;;;16.68;53.40;100391.41;5052441;28;20032;-67
2021/09/12 06:09:25;;;;;;;12.05;5.30;;;;;;;16.56;53.37;100347.88;5052353;28;20029;-65
2021/09/12 06:11:51;;;;;;;7.95;4.85;;;;;;;16.70;53.89;100392.31;5052158;28;20111;-67
2021/09/12 06:14:18;;;;;;;7.93;5.10;;;;;;;16.96;52.92;100399.56;5052146;28;20068;-67
2021/09/12 06:16:44;;;;;;;11.50;4.88;;;;;;;17.14;52.62;100388.41;5051967;28;20040;-67
2021/09/12 06:19:09;;;;;;;14.52;5.00;;;;;;;17.29;52.31;100383.31;5052336;28;20029;-69
2021/09/12 06:21:34;;;;;;;10.00;5.65;;;;;;;17.45;52.16;100384.31;5052220;28;20048;-68
2021/09/12 06:24:00;;;;;;;10.60;5.53;;;;;;;17.70;51.56;100378.41;5052354;28;20034;-68
2021/09/12 06:26:26;;;;;;;10.77;4.90;;;;;;;17.83;50.89;100380.22;5051978;28;20036;-67
2021/09/12 06:28:52;;;;;;;13.02;5.07;;;;;;;18.03;50.99;100382.09;5051944;28;20052;-67
2021/09/12 06:31:18;;;;;;;11.93;5.55;;;;;;;18.20;50.28;100385.63;5051755;28;20483;-67
2021/09/12 06:33:44;;;;;;;7.72;5.13;;;;;;;18.42;50.05;100375.28;5052003;28;20029;-67
2021/09/12 06:36:09;;;;;;;10.38;5.00;;;;;;;18.66;49.43;100378.84;5052061;28;20037;-67
2021/09/12 06:38:35;;;;;;;7.57;4.40;;;;;;;18.84;49.08;100378.88;5052041;28;20043;-67
2021/09/12 06:41:01;;;;;;;12.75;4.97;;;;;;;18.95;49.03;100375.41;5051957;28;20053;-67
2021/09/12 06:43:27;;;;;;;9.63;4.70;;;;;;;19.12;48.62;100375.44;5051975;28;20025;-67
2021/09/12 06:45:53;;;;;;;9.55;4.75;;;;;;;19.33;47.75;100371.94;5051823;28;20461;-67
2021/09/12 06:48:18;;;;;;;9.27;4.82;;;;;;;19.52;47.94;100384.13;5052052;28;20029;-68
2021/09/12 06:50:44;;;;;;;8.82;4.95;;;;;;;19.60;48.21;100375.38;5052269;28;20040;-67
2021/09/12 06:53:10;;;;;;;12.93;6.55;;;;;;;19.80;46.97;100386.72;5051703;28;20079;-67
2021/09/12 06:55:35;;;;;;;10.93;4.95;;;;;;;19.80;45.43;100370.09;5051712;28;20419;-68
2021/09/12 06:58:01;;;;;;;13.73;5.88;;;;;;;19.92;45.03;100382.34;5051261;28;20025;-67
2021/09/12 07:00:26;;;;;;;8.38;4.47;;;;;;;20.02;43.98;100374.44;5051264;28;20025;-70
2021/09/12 07:02:52;;;;;;;11.45;5.38;;;;;;;20.05;44.15;100378.81;5052112;28;20029;-68
2021/09/12 07:05:17;;;;;;;11.13;5.03;;;;;;;20.06;43.36;100356.94;5051689;28;20040;-67
2021/09/12 07:07:43;;;;;;;11.20;5.15;;;;;;;20.35;42.81;100376.94;5051725;28;20033;-68
2021/09/12 07:10:09;;;;;;;10.05;5.03;;;;;;;20.51;42.96;100380.34;5051626;28;20406;-67
2021/09/12 07:12:34;;;;;;;8.55;5.22;;;;;;;20.56;42.18;100364.56;5051524;28;20029;-67
2021/09/12 07:15:00;;;;;;;9.70;4.82;;;;;;;20.53;42.42;100340.09;5049219;28;20483;-68
2021/09/12 07:17:25;;;;;;;14.30;5.20;;;;;;;20.87;42.75;100378.38;5051510;28;20033;-68
2021/09/12 07:19:51;;;;;;;13.68;5.10;;;;;;;21.09;41.29;100376.47;5051547;28;20463;-68
2021/09/12 07:22:16;;;;;;;14.65;5.93;;;;;;;21.26;40.70;100364.97;5051578;28;20025;-68
2021/09/12 07:24:42;;;;;;;10.32;5.07;;;;;;;21.44;40.30;100374.44;5051559;28;20017;-68
2021/09/12 07:27:07;;;;;;;9.10;5.07;;;;;;;21.47;40.58;100361.25;5051544;28;20029;-68
2021/09/12 07:29:33;;;;;;;11.10;5.35;;;;;;;21.56;40.12;100365.59;5051078;28;20021;-68
2021/09/12 07:31:59;;;;;;;11.25;5.30;;;;;;;21.57;41.44;100357.72;5051386;28;20033;-67
2021/09/12 07:34:24;;;;;;;9.63;5.32;;;;;;;21.68;43.21;100364.59;5051741;28;20027;-67
2021/09/12 07:36:50;;;;;;;13.18;4.97;;;;;;;21.76;39.89;100358.38;5051313;28;20104;-68
2021/09/12 07:39:15;;;;;;;9.88;5.57;;;;;;;21.88;39.70;100361.75;5051366;28;20036;-68
2021/09/12 07:41:41;;;;;;;8.60;4.88;;;;;;;22.01;39.50;100363.34;5051415;28;20407;-67
2021/09/12 07:44:06;;;;;;;10.13;5.50;;;;;;;22.26;38.78;100357.78;5051258;28;20453;-68
2021/09/12 07:46:31;;;;;;;8.27;5.55;;;;;;;22.42;38.36;100361.13;5051299;28;20029;-68
2021/09/12 07:48:58;;;;;;;11.85;5.47;;;;;;;22.66;37.72;100353.78;5051353;28;20029;-68
2021/09/12 07:51:23;;;;;;;10.20;5.85;;;;;;;22.73;37.83;100329.97;5051155;28;20090;-68
2021/09/12 07:53:48;;;;;;;11.57;5.35;;;;;;;23.10;39.96;100352.19;5032409;28;20057;-68
2021/09/12 07:56:14;;;;;;;9.20;5.45;;;;;;;23.04;36.55;100360.19;5051186;28;20024;-68
2021/09/12 07:58:39;;;;;;;12.05;5.28;;;;;;;23.15;36.01;100358.22;5051019;28;20029;-66
2021/09/12 08:01:05;;;;;;;14.82;5.47;;;;;;;23.27;35.85;100347.53;5050820;28;20029;-68
2021/09/12 08:03:33;;;;;;;10.57;5.70;;;;;;;23.24;36.47;100338.81;5050983;28;20463;-68
2021/09/12 08:05:59;;;;;;;9.40;5.30;;;;;;;23.37;35.87;100344.75;5051507;28;20025;-68
2021/09/12 08:08:24;;;;;;;12.57;5.43;;;;;;;23.53;35.20;100340.91;5051099;28;20502;-68
2021/09/12 08:10:50;;;;;;;10.50;5.38;;;;;;;23.60;34.49;100331.13;5053245;28;20479;-68
2021/09/12 08:13:16;;;;;;;10.70;6.13;;;;;;;23.73;34.63;100335.25;5054642;28;20075;-68
2021/09/12 08:15:41;;;;;;;14.35;5.90;;;;;;;23.83;35.10;100332.47;5054504;28;20056;-68
2021/09/12 08:18:07;;;;;;;14.43;5.47;;;;;;;24.00;34.46;100334.75;5054360;28;20025;-68
2021/09/12 08:20:33;;;;;;;12.25;5.60;;;;;;;24.05;35.19;100332.88;5054499;28;20380;-68
2021/09/12 08:22:58;;;;;;;13.23;4.97;;;;;;;24.15;34.41;100334.44;5054538;28;20498;-68
2021/09/12 08:25:24;;;;;;;11.88;5.63;;;;;;;24.30;35.14;100341.16;5054471;28;20025;-68
2021/09/12 08:27:50;;;;;;;11.80;5.80;;;;;;;24.38;35.17;100331.28;5054197;28;20403;-68
2021/09/12 08:30:16;;;;;;;17.92;5.63;;;;;;;24.38;34.36;100319.88;5054014;28;20082;-68
2021/09/12 08:32:41;;;;;;;12.23;5.68;;;;;;;24.35;32.85;100330.47;5054209;28;20540;-68
2021/09/12 08:35:08;;;;;;;11.27;6.20;;;;;;;24.44;32.93;100321.53;5054083;28;20029;-68
2021/09/12 08:37:34;;;;;;;11.18;5.82;;;;;;;24.64;32.39;100318.41;5054168;28;20025;-68
2021/09/12 08:40:00;;;;;;;13.20;5.40;;;;;;;24.92;32.58;100312.47;5054222;28;20036;-68
2021/09/12 08:42:26;;;;;;;16.50;5.88;;;;;;;25.13;33.10;100313.72;5053988;28;20021;-68
2021/09/12 08:44:52;;;;;;;13.82;6.32;;;;;;;25.19;33.66;100305.63;5054057;28;20033;-68
2021/09/12 08:47:18;;;;;;;12.50;6.05;;;;;;;25.40;32.37;100311.28;5054234;28;20048;-68
2021/09/12 08:49:44;;;;;;;12.65;5.35;;;;;;;25.49;32.68;100311.88;5053905;28;20033;-68
2021/09/12 08:52:11;;;;;;;18.15;6.20;;;;;;;25.62;32.46;100308.91;5054221;28;20072;-68
2021/09/12 08:54:37;;;;;;;13.35;5.95;;;;;;;25.53;30.45;100280.94;5054099;28;20044;-68
2021/09/12 08:57:03;;;;;;;12.05;5.97;;;;;;;25.70;30.45;100298.13;5053508;28;20029;-68
2021/09/12 08:59:32;;;;;;;9.50;5.50;;;;;;;25.84;32.38;100296.81;5053770;28;20472;-68
2021/09/12 09:01:59;;;;;;;11.30;5.40;;;;;;;25.98;30.14;100298.16;5053689;28;20029;-68
2021/09/12 09:04:26;;;;;;;14.98;6.75;;;;;;;26.09;30.50;100295.22;5053655;28;20040;-68
2021/09/12 09:07:09;;;;;;;10.75;6.18;;;;;;;26.30;29.89;100283.13;5053788;28;20391;-68
2021/09/12 09:09:50;;;;;;;14.00;5.93;;;;;;;26.41;29.19;100277.50;5053367;28;20061;-68
2021/09/12 09:12:36;;;;;;;13.35;5.85;;;;;;;26.57;28.86;100281.38;5053738;28;20035;-68
2021/09/12 09:15:16;;;;;;;14.50;6.53;;;;;;;26.73;29.23;100270.25;5053209;28;20060;-68
2021/09/12 09:17:48;;;;;;;14.63;6.60;;;;;;;26.76;29.39;100270.22;5053316;28;20055;-68
2021/09/12 09:20:20;;;;;;;13.98;6.00;;;;;;;26.77;30.11;100270.16;5051147;28;20103;-68
2021/09/12 09:22:49;;;;;;;10.98;6.28;;;;;;;26.86;30.80;100270.75;5053482;28;20064;-66
2021/09/12 09:25:23;;;;;;;13.98;6.07;;;;;;;26.71;28.50;100227.94;5051380;28;20068;-68
2021/09/12 09:28:07;;;;;;;14.00;5.95;;;;;;;27.04;28.63;100262.19;5053180;28;20025;-68
2021/09/12 09:30:54;;;;;;;12.77;6.50;;;;;;;27.06;29.45;100262.13;5052790;28;20029;-68
2021/09/12 09:33:22;;;;;;;16.42;6.68;;;;;;;26.85;32.47;100232.81;5053085;28;20038;-68
2021/09/12 09:35:52;;;;;;;14.13;6.90;;;;;;;27.08;29.68;100265.59;5053024;28;20095;-68
2021/09/12 09:38:20;;;;;;;13.07;7.15;;;;;;;27.20;28.63;100259.84;5052915;28;20526;-68
2021/09/12 09:41:01;;;;;;;12.38;6.20;;;;;;;27.33;28.33;100246.13;5052940;28;20029;-68
2021/09/12 09:43:43;;;;;;;11.60;6.70;;;;;;;27.42;28.16;100252.00;5053191;28;20024;-68
2021/09/12 09:46:35;;;;;;;12.98;6.72;;;;;;;27.31;28.15;100213.56;5053023;28;20032;-68
2021/09/12 09:49:27;;;;;;;13.68;7.22;;;;;;;27.65;28.04;100249.44;5052531;28;20021;-68
2021/09/12 09:52:00;;;;;;;16.02;7.03;;;;;;;27.82;27.55;100248.78;5052962;28;20079;-68
2021/09/12 09:54:33;;;;;;;14.10;6.93;;;;;;;27.85;28.53;100246.91;5052825;28;20462;-68
2021/09/12 09:57:00;;;;;;;17.73;6.95;;;;;;;27.82;28.33;100204.56;5052699;28;20091;-68
2021/09/12 09:59:27;;;;;;;13.02;6.28;;;;;;;28.11;27.87;100242.38;5052420;28;20036;-66
2021/09/12 10:01:54;;;;;;;11.90;7.38;;;;;;;28.31;29.36;100238.91;5052351;28;20021;-68
2021/09/12 10:04:28;;;;;;;17.98;7.03;;;;;;;28.35;27.66;100218.41;5033914;28;20044;-68
2021/09/12 10:06:55;;;;;;;15.20;7.28;;;;;;;28.41;27.90;100226.13;5052687;28;20386;-68
2021/09/12 10:09:21;;;;;;;14.10;6.40;;;;;;;28.65;27.81;100231.34;5052442;28;20032;-68
2021/09/12 10:11:51;;;;;;;14.40;6.88;;;;;;;28.44;27.38;100220.69;5052574;28;20106;-68
2021/09/12 10:14:24;;;;;;;12.10;6.70;;;;;;;28.36;27.19;100220.13;5052285;28;20372;-68
2021/09/12 10:16:51;;;;;;;20.90;6.93;;;;;;;28.64;27.60;100224.31;5052159;28;20471;-68
2021/09/12 10:19:37;;;;;;;10.88;6.75;;;;;;;28.57;27.41;100181.19;5033413;28;20414;-68
2021/09/12 10:22:19;;;;;;;16.25;6.20;;;;;;;29.02;26.04;100222.69;5052338;28;20028;-69
2021/09/12 10:25:00;;;;;;;14.60;6.68;;;;;;;28.99;25.92;100204.22;5052146;28;20076;-68
2021/09/12 10:27:36;;;;;;;11.20;6.45;;;;;;;28.95;25.77;100197.31;5052300;28;20059;-68
2021/09/12 10:30:29;;;;;;;11.90;6.75;;;;;;;28.88;25.04;100196.69;5051911;28;20024;-68
2021/09/12 10:33:07;;;;;;;12.80;6.10;;;;;;;28.65;25.60;100199.47;5051221;28;20033;-68
2021/09/12 10:35:50;;;;;;;17.33;7.22;;;;;;;28.63;25.51;100190.72;5051894;28;20528;-68
2021/09/12 10:38:36;;;;;;;11.77;5.45;;;;;;;28.57;25.17;100152.00;5049790;28;20059;-68
2021/09/12 10:41:02;;;;;;;9.57;6.38;;;;;;;28.50;26.16;100148.75;5051864;28;20029;-68
2021/09/12 10:43:27;;;;;;;15.00;6.68;;;;;;;28.80;25.77;100184.69;5051939;28;20032;-68
2021/09/12 10:46:02;;;;;;;16.75;6.60;;;;;;;29.05;27.58;100192.47;5052127;28;20107;-68
2021/09/12 10:48:50;;;;;;;13.80;6.57;;;;;;;29.09;26.27;100190.53;5051722;28;20033;-69
2021/09/12 10:51:18;;;;;;;12.15;6.60;;;;;;;29.21;26.36;100189.97;5010147;28;20037;-68
2021/09/12 10:56:15;;;;;;;12.20;6.30;;;;;;;29.14;26.56;100189.38;5009668;28;20045;-68
2021/09/12 10:58:42;;;;;;;11.35;7.18;;;;;;;29.11;25.82;100180.66;5009832;28;20026;-69
2021/09/12 11:01:11;;;;;;;13.68;6.70;;;;;;;29.24;26.01;100183.66;5009759;28;20101;-68
2021/09/12 11:03:37;;;;;;;14.98;6.50;;;;;;;29.24;27.40;100149.94;5009798;28;20200;-68
2021/09/12 11:06:02;;;;;;;13.30;7.20;;;;;;;29.51;26.33;100158.47;5009993;28;20543;-68
2021/09/12 11:08:35;;;;;;;17.25;6.68;;;;;;;29.82;26.26;100164.09;5009784;28;20601;-69
2021/09/12 11:11:02;;;;;;;15.18;7.00;;;;;;;29.93;26.37;100169.81;5009977;28;20041;-68
2021/09/12 11:13:27;;;;;;;9.15;6.20;;;;;;;29.74;26.59;100158.31;5009667;28;20038;-67
2021/09/12 11:16:06;;;;;;;13.48;6.65;;;;;;;29.48;25.80;100163.91;5009652;28;20432;-68
2021/09/12 11:18:51;;;;;;;16.08;7.20;;;;;;;29.32;27.51;100168.22;5009548;28;20040;-68
2021/09/12 11:21:43;;;;;;;26.70;8.07;;;;;;;29.51;26.75;100166.44;4976923;28;20135;-68
2021/09/12 11:24:24;;;;;;;13.23;6.93;;;;;;;29.82;25.24;100151.69;5009867;28;20553;-69